sensor_id;sensor_type;location;lat;lon;timestamp;temperature;humidity
31597;DHT22;18201;50.978;7.034;2023-04-03T00:00:04;2.00;99.90
31597;DHT22;18201;50.978;7.034;2023-04-03T00:00:35;2.00;99.90
31597;DHT22;18201;50.978;7.034;2023-04-03T00:01:06;2.00;99.90
31597;DHT22;18201;50.978;7.034;2023-04-03T00:10:45;1.80;99.90
31597;DHT22;18201;50.978;7.034;2023-04-03T00:11:17;1.80;99.90
31597;DHT22;18201;50.978;7.034;2023-04-03T00:11:48;1.80;99.90
31597;DHT22;18201;50.978;7.034;2023-04-03T00:12:20;1.80;99.90
31597;DHT22;18201;50.978;7.034;2023-04-03T00:12:52;1.80;99.90
31597;DHT22;18201;50.978;7.034;2023-04-03T00:13:22;1.80;99.90
31597;DHT22;18201;50.978;7.034;2023-04-03T00:13:53;1.80;99.90
31597;DHT22;18201;50.978;7.034;2023-04-03T00:14:25;1.80;99.90
31597;DHT22;18201;50.978;7.034;2023-04-03T00:14:56;1.80;99.90
31597;DHT22;18201;50.978;7.034;2023-04-03T00:15:27;1.80;99.90
31597;DHT22;18201;50.978;7.034;2023-04-03T00:15:57;1.80;99.90
31597;DHT22;18201;50.978;7.034;2023-04-03T00:16:29;1.80;99.90
31597;DHT22;18201;50.978;7.034;2023-04-03T00:17:00;1.80;99.90
31597;DHT22;18201;50.978;7.034;2023-04-03T00:17:31;1.70;99.90
31597;DHT22;18201;50.978;7.034;2023-04-03T00:18:02;1.80;99.90
31597;DHT22;18201;50.978;7.034;2023-04-03T00:18:34;1.80;99.90
31597;DHT22;18201;50.978;7.034;2023-04-03T00:19:04;1.80;99.90
31597;DHT22;18201;50.978;7.034;2023-04-03T00:19:36;1.80;99.90
31597;DHT22;18201;50.978;7.034;2023-04-03T00:20:07;1.70;99.90
31597;DHT22;18201;50.978;7.034;2023-04-03T00:20:38;1.70;99.90
31597;DHT22;18201;50.978;7.034;2023-04-03T00:21:10;1.70;99.90
31597;DHT22;18201;50.978;7.034;2023-04-03T00:21:42;1.70;99.90
31597;DHT22;18201;50.978;7.034;2023-04-03T00:22:13;1.70;99.90
31597;DHT22;18201;50.978;7.034;2023-04-03T00:22:43;1.70;99.90
31597;DHT22;18201;50.978;7.034;2023-04-03T00:23:16;1.70;99.90
31597;DHT22;18201;50.978;7.034;2023-04-03T00:23:47;1.70;99.90
31597;DHT22;18201;50.978;7.034;2023-04-03T00:24:17;1.70;99.90
31597;DHT22;18201;50.978;7.034;2023-04-03T00:24:49;1.70;99.90
31597;DHT22;18201;50.978;7.034;2023-04-03T00:25:20;1.70;99.90
31597;DHT22;18201;50.978;7.034;2023-04-03T00:25:51;1.70;99.90
31597;DHT22;18201;50.978;7.034;2023-04-03T00:26:21;1.70;99.90
31597;DHT22;18201;50.978;7.034;2023-04-03T00:26:53;1.60;99.90
31597;DHT22;18201;50.978;7.034;2023-04-03T00:27:25;1.60;99.90
31597;DHT22;18201;50.978;7.034;2023-04-03T00:27:56;1.70;99.90
31597;DHT22;18201;50.978;7.034;2023-04-03T00:28:27;1.70;99.90
31597;DHT22;18201;50.978;7.034;2023-04-03T00:28:58;1.60;99.90
31597;DHT22;18201;50.978;7.034;2023-04-03T00:29:29;1.60;99.90
31597;DHT22;18201;50.978;7.034;2023-04-03T00:30:00;1.60;99.90
31597;DHT22;18201;50.978;7.034;2023-04-03T00:30:31;1.60;99.90
31597;DHT22;18201;50.978;7.034;2023-04-03T00:31:02;1.60;99.90
31597;DHT22;18201;50.978;7.034;2023-04-03T00:31:34;1.60;99.90
31597;DHT22;18201;50.978;7.034;2023-04-03T04:36:08;-0.10;99.90
31597;DHT22;18201;50.978;7.034;2023-04-03T04:36:39;-0.20;99.90
31597;DHT22;18201;50.978;7.034;2023-04-03T04:37:10;-0.20;99.90
31597;DHT22;18201;50.978;7.034;2023-04-03T04:37:41;-0.20;99.90
31597;DHT22;18201;50.978;7.034;2023-04-03T04:38:12;-0.20;99.90
31597;DHT22;18201;50.978;7.034;2023-04-03T04:38:43;-0.20;99.90
31597;DHT22;18201;50.978;7.034;2023-04-03T04:39:14;-0.20;99.90
31597;DHT22;18201;50.978;7.034;2023-04-03T04:39:46;-0.20;99.90
31597;DHT22;18201;50.978;7.034;2023-04-03T04:40:16;-0.20;99.90
31597;DHT22;18201;50.978;7.034;2023-04-03T04:40:47;-0.20;99.90
31597;DHT22;18201;50.978;7.034;2023-04-03T04:41:19;-0.20;99.90
31597;DHT22;18201;50.978;7.034;2023-04-03T04:41:52;-0.20;99.90
31597;DHT22;18201;50.978;7.034;2023-04-03T04:42:23;-0.20;99.90
31597;DHT22;18201;50.978;7.034;2023-04-03T04:42:55;-0.20;99.90
31597;DHT22;18201;50.978;7.034;2023-04-03T04:43:25;-0.20;99.90
31597;DHT22;18201;50.978;7.034;2023-04-03T04:43:57;-0.20;99.90
31597;DHT22;18201;50.978;7.034;2023-04-03T04:44:28;-0.20;99.90
31597;DHT22;18201;50.978;7.034;2023-04-03T04:44:59;-0.20;99.90
31597;DHT22;18201;50.978;7.034;2023-04-03T04:45:30;-0.20;99.90
31597;DHT22;18201;50.978;7.034;2023-04-03T04:46:02;-0.20;99.90
31597;DHT22;18201;50.978;7.034;2023-04-03T04:46:33;-0.20;99.90
31597;DHT22;18201;50.978;7.034;2023-04-03T04:47:04;-0.20;99.90
31597;DHT22;18201;50.978;7.034;2023-04-03T04:47:35;-0.20;99.90
31597;DHT22;18201;50.978;7.034;2023-04-03T04:48:06;-0.20;99.90
31597;DHT22;18201;50.978;7.034;2023-04-03T04:48:38;-0.20;99.90
31597;DHT22;18201;50.978;7.034;2023-04-03T04:49:08;-0.20;99.90
31597;DHT22;18201;50.978;7.034;2023-04-03T04:49:39;-0.20;99.90
31597;DHT22;18201;50.978;7.034;2023-04-03T04:50:11;-0.20;99.90
31597;DHT22;18201;50.978;7.034;2023-04-03T04:50:41;-0.20;99.90
31597;DHT22;18201;50.978;7.034;2023-04-03T04:51:13;-0.20;99.90
31597;DHT22;18201;50.978;7.034;2023-04-03T04:51:45;-0.30;99.90
31597;DHT22;18201;50.978;7.034;2023-04-03T04:52:16;-0.30;99.90
31597;DHT22;18201;50.978;7.034;2023-04-03T04:52:47;-0.20;99.90
31597;DHT22;18201;50.978;7.034;2023-04-03T04:53:17;-0.20;99.90
31597;DHT22;18201;50.978;7.034;2023-04-03T04:53:49;-0.20;99.90
31597;DHT22;18201;50.978;7.034;2023-04-03T04:54:20;-0.20;99.90
31597;DHT22;18201;50.978;7.034;2023-04-03T04:54:50;-0.20;99.90
31597;DHT22;18201;50.978;7.034;2023-04-03T04:55:22;-0.20;99.90
31597;DHT22;18201;50.978;7.034;2023-04-03T04:55:53;-0.30;99.90
31597;DHT22;18201;50.978;7.034;2023-04-03T04:56:24;-0.30;99.90
31597;DHT22;18201;50.978;7.034;2023-04-03T04:56:55;-0.30;99.90
31597;DHT22;18201;50.978;7.034;2023-04-03T04:57:26;-0.30;99.90
31597;DHT22;18201;50.978;7.034;2023-04-03T04:57:57;-0.30;99.90
31597;DHT22;18201;50.978;7.034;2023-04-03T04:58:28;-0.30;99.90
31597;DHT22;18201;50.978;7.034;2023-04-03T04:58:59;-0.30;99.90
31597;DHT22;18201;50.978;7.034;2023-04-03T04:59:30;-0.30;99.90
31597;DHT22;18201;50.978;7.034;2023-04-03T05:00:02;-0.20;99.90
31597;DHT22;18201;50.978;7.034;2023-04-03T05:00:33;-0.20;99.90
31597;DHT22;18201;50.978;7.034;2023-04-03T05:01:06;-0.30;99.90
31597;DHT22;18201;50.978;7.034;2023-04-03T05:01:37;-0.30;99.90
31597;DHT22;18201;50.978;7.034;2023-04-03T05:02:07;-0.30;99.90
31597;DHT22;18201;50.978;7.034;2023-04-03T05:02:39;-0.30;99.90
31597;DHT22;18201;50.978;7.034;2023-04-03T05:03:10;-0.30;99.90
31597;DHT22;18201;50.978;7.034;2023-04-03T05:03:41;-0.30;99.90
31597;DHT22;18201;50.978;7.034;2023-04-03T05:04:12;-0.30;99.90
31597;DHT22;18201;50.978;7.034;2023-04-03T05:04:43;-0.30;99.90
31597;DHT22;18201;50.978;7.034;2023-04-03T05:05:15;-0.30;99.90
31597;DHT22;18201;50.978;7.034;2023-04-03T05:05:46;-0.30;99.90
31597;DHT22;18201;50.978;7.034;2023-04-03T05:06:18;-0.30;99.90
31597;DHT22;18201;50.978;7.034;2023-04-03T05:06:50;-0.30;99.90
31597;DHT22;18201;50.978;7.034;2023-04-03T05:07:20;-0.30;99.90
31597;DHT22;18201;50.978;7.034;2023-04-03T05:07:51;-0.30;99.90
31597;DHT22;18201;50.978;7.034;2023-04-03T05:08:23;-0.30;99.90
31597;DHT22;18201;50.978;7.034;2023-04-03T05:08:54;-0.30;99.90
31597;DHT22;18201;50.978;7.034;2023-04-03T05:09:25;-0.30;99.90
31597;DHT22;18201;50.978;7.034;2023-04-03T05:09:56;-0.30;99.90
31597;DHT22;18201;50.978;7.034;2023-04-03T05:10:27;-0.30;99.90
31597;DHT22;18201;50.978;7.034;2023-04-03T05:10:58;-0.40;99.90
31597;DHT22;18201;50.978;7.034;2023-04-03T08:03:51;3.00;1.00
31597;DHT22;18201;50.978;7.034;2023-04-03T08:55:42;4.30;1.00
31597;DHT22;18201;50.978;7.034;2023-04-03T08:56:13;4.40;1.00
31597;DHT22;18201;50.978;7.034;2023-04-03T08:56:45;4.50;1.00
31597;DHT22;18201;50.978;7.034;2023-04-03T08:57:17;4.50;1.00
31597;DHT22;18201;50.978;7.034;2023-04-03T08:57:51;4.50;1.00
31597;DHT22;18201;50.978;7.034;2023-04-03T08:58:26;4.50;1.00
31597;DHT22;18201;50.978;7.034;2023-04-03T08:58:58;4.50;1.00
31597;DHT22;18201;50.978;7.034;2023-04-03T08:59:32;4.50;99.90
31597;DHT22;18201;50.978;7.034;2023-04-03T09:00:04;4.50;99.90
31597;DHT22;18201;50.978;7.034;2023-04-03T09:00:40;4.60;99.90
31597;DHT22;18201;50.978;7.034;2023-04-03T09:01:17;4.60;99.90
31597;DHT22;18201;50.978;7.034;2023-04-03T09:01:48;4.60;99.90
31597;DHT22;18201;50.978;7.034;2023-04-03T09:02:23;4.60;99.90
31597;DHT22;18201;50.978;7.034;2023-04-03T09:02:56;4.70;99.90
31597;DHT22;18201;50.978;7.034;2023-04-03T09:03:29;4.60;99.90
31597;DHT22;18201;50.978;7.034;2023-04-03T09:04:01;4.70;99.90
31597;DHT22;18201;50.978;7.034;2023-04-03T09:04:32;4.60;99.90
31597;DHT22;18201;50.978;7.034;2023-04-03T09:05:06;4.70;76.40
31597;DHT22;18201;50.978;7.034;2023-04-03T09:05:45;4.70;1.00
31597;DHT22;18201;50.978;7.034;2023-04-03T09:06:18;4.80;1.00
31597;DHT22;18201;50.978;7.034;2023-04-03T09:06:52;4.80;99.90
31597;DHT22;18201;50.978;7.034;2023-04-03T09:07:27;4.80;99.90
31597;DHT22;18201;50.978;7.034;2023-04-03T09:08:04;4.80;1.00
31597;DHT22;18201;50.978;7.034;2023-04-03T09:08:40;4.80;99.90
31597;DHT22;18201;50.978;7.034;2023-04-03T09:09:15;4.70;99.90
31597;DHT22;18201;50.978;7.034;2023-04-03T09:09:52;4.70;99.90
31597;DHT22;18201;50.978;7.034;2023-04-03T09:10:26;4.70;99.90
31597;DHT22;18201;50.978;7.034;2023-04-03T09:28:09;5.40;1.00
31597;DHT22;18201;50.978;7.034;2023-04-03T09:41:13;5.80;99.90
31597;DHT22;18201;50.978;7.034;2023-04-03T09:41:57;5.70;1.00
31597;DHT22;18201;50.978;7.034;2023-04-03T09:42:27;5.80;1.00
31597;DHT22;18201;50.978;7.034;2023-04-03T09:43:02;5.80;99.90
31597;DHT22;18201;50.978;7.034;2023-04-03T09:43:34;5.80;99.90
31597;DHT22;18201;50.978;7.034;2023-04-03T09:44:19;5.80;99.90
31597;DHT22;18201;50.978;7.034;2023-04-03T09:44:53;5.90;99.90
31597;DHT22;18201;50.978;7.034;2023-04-03T09:45:26;5.90;99.90
31597;DHT22;18201;50.978;7.034;2023-04-03T09:46:44;5.80;60.50
31597;DHT22;18201;50.978;7.034;2023-04-03T09:47:19;5.80;1.00
31597;DHT22;18201;50.978;7.034;2023-04-03T09:48:04;5.80;99.90
31597;DHT22;18201;50.978;7.034;2023-04-03T09:48:37;5.80;93.70
31597;DHT22;18201;50.978;7.034;2023-04-03T09:49:08;5.80;99.90
31597;DHT22;18201;50.978;7.034;2023-04-03T09:49:41;5.90;99.90
31597;DHT22;18201;50.978;7.034;2023-04-03T09:50:18;5.90;99.90
31597;DHT22;18201;50.978;7.034;2023-04-03T09:50:54;5.90;99.90
31597;DHT22;18201;50.978;7.034;2023-04-03T09:51:28;6.00;99.90
31597;DHT22;18201;50.978;7.034;2023-04-03T09:52:05;6.00;99.90
31597;DHT22;18201;50.978;7.034;2023-04-03T09:52:49;6.00;99.90
31597;DHT22;18201;50.978;7.034;2023-04-03T09:53:26;6.00;99.90
31597;DHT22;18201;50.978;7.034;2023-04-03T09:53:57;6.10;66.30
31597;DHT22;18201;50.978;7.034;2023-04-03T09:54:36;6.00;33.60
31597;DHT22;18201;50.978;7.034;2023-04-03T09:55:13;6.10;99.90
31597;DHT22;18201;50.978;7.034;2023-04-03T09:55:45;6.10;55.10
31597;DHT22;18201;50.978;7.034;2023-04-03T09:56:20;6.20;1.00
31597;DHT22;18201;50.978;7.034;2023-04-03T09:56:52;6.10;28.10
31597;DHT22;18201;50.978;7.034;2023-04-03T09:57:23;6.20;99.90
31597;DHT22;18201;50.978;7.034;2023-04-03T09:58:04;6.10;99.90
31597;DHT22;18201;50.978;7.034;2023-04-03T09:58:40;6.20;99.90
31597;DHT22;18201;50.978;7.034;2023-04-03T09:59:13;6.20;99.90
31597;DHT22;18201;50.978;7.034;2023-04-03T09:59:46;6.20;99.90
31597;DHT22;18201;50.978;7.034;2023-04-03T10:00:20;6.20;1.00
31597;DHT22;18201;50.978;7.034;2023-04-03T10:00:55;6.20;1.00
31597;DHT22;18201;50.978;7.034;2023-04-03T10:01:27;6.30;1.00
31597;DHT22;18201;50.978;7.034;2023-04-03T10:01:59;6.40;99.90
31597;DHT22;18201;50.978;7.034;2023-04-03T10:02:35;6.40;99.90
31597;DHT22;18201;50.978;7.034;2023-04-03T10:03:09;6.40;99.90
31597;DHT22;18201;50.978;7.034;2023-04-03T10:04:05;6.50;1.00
31597;DHT22;18201;50.978;7.034;2023-04-03T10:04:37;6.50;99.90
31597;DHT22;18201;50.978;7.034;2023-04-03T10:05:29;6.50;99.90
31597;DHT22;18201;50.978;7.034;2023-04-03T10:06:01;6.60;1.00
31597;DHT22;18201;50.978;7.034;2023-04-03T10:06:34;6.60;1.00
31597;DHT22;18201;50.978;7.034;2023-04-03T10:08:07;6.60;99.90
31597;DHT22;18201;50.978;7.034;2023-04-03T10:08:38;6.60;99.90
31597;DHT22;18201;50.978;7.034;2023-04-03T10:09:18;6.70;99.90
31597;DHT22;18201;50.978;7.034;2023-04-03T10:09:54;6.80;99.90
31597;DHT22;18201;50.978;7.034;2023-04-03T10:10:25;6.80;99.90
31597;DHT22;18201;50.978;7.034;2023-04-03T10:11:57;6.80;99.90
31597;DHT22;18201;50.978;7.034;2023-04-03T10:12:27;6.90;99.90
31597;DHT22;18201;50.978;7.034;2023-04-03T10:13:06;7.00;99.90
31597;DHT22;18201;50.978;7.034;2023-04-03T10:13:50;7.00;99.90
31597;DHT22;18201;50.978;7.034;2023-04-03T10:14:22;7.00;92.60
31597;DHT22;18201;50.978;7.034;2023-04-03T10:14:54;7.00;16.40
31597;DHT22;18201;50.978;7.034;2023-04-03T10:15:26;7.00;1.00
31597;DHT22;18201;50.978;7.034;2023-04-03T10:15:59;7.00;1.00
31597;DHT22;18201;50.978;7.034;2023-04-03T10:16:34;7.00;1.00
31597;DHT22;18201;50.978;7.034;2023-04-03T10:17:14;7.00;1.00
31597;DHT22;18201;50.978;7.034;2023-04-03T10:17:49;7.10;99.90
31597;DHT22;18201;50.978;7.034;2023-04-03T10:18:27;7.10;99.90
31597;DHT22;18201;50.978;7.034;2023-04-03T10:19:03;7.10;99.90
31597;DHT22;18201;50.978;7.034;2023-04-03T10:19:36;7.10;99.90
31597;DHT22;18201;50.978;7.034;2023-04-03T10:20:17;7.10;99.90
31597;DHT22;18201;50.978;7.034;2023-04-03T10:20:51;7.10;99.90
31597;DHT22;18201;50.978;7.034;2023-04-03T10:21:28;7.10;99.90
31597;DHT22;18201;50.978;7.034;2023-04-03T10:22:02;7.10;1.00
31597;DHT22;18201;50.978;7.034;2023-04-03T10:22:37;7.20;9.20
31597;DHT22;18201;50.978;7.034;2023-04-03T10:23:15;7.30;1.00
31597;DHT22;18201;50.978;7.034;2023-04-03T10:23:49;7.30;1.00
31597;DHT22;18201;50.978;7.034;2023-04-03T10:24:23;7.50;99.90
31597;DHT22;18201;50.978;7.034;2023-04-03T10:24:59;7.60;99.90
31597;DHT22;18201;50.978;7.034;2023-04-03T10:25:35;7.60;99.90
31597;DHT22;18201;50.978;7.034;2023-04-03T10:26:12;7.60;99.90
31597;DHT22;18201;50.978;7.034;2023-04-03T10:26:50;7.70;99.90
31597;DHT22;18201;50.978;7.034;2023-04-03T10:27:24;7.80;99.90
31597;DHT22;18201;50.978;7.034;2023-04-03T10:27:59;7.90;71.70
31597;DHT22;18201;50.978;7.034;2023-04-03T10:28:31;8.00;1.00
31597;DHT22;18201;50.978;7.034;2023-04-03T10:29:09;8.00;1.00
31597;DHT22;18201;50.978;7.034;2023-04-03T10:32:38;8.60;99.90
31597;DHT22;18201;50.978;7.034;2023-04-03T10:33:33;8.70;99.90
31597;DHT22;18201;50.978;7.034;2023-04-03T10:34:10;8.80;99.90
31597;DHT22;18201;50.978;7.034;2023-04-03T10:34:48;9.00;99.90
31597;DHT22;18201;50.978;7.034;2023-04-03T10:35:26;9.10;99.90
31597;DHT22;18201;50.978;7.034;2023-04-03T10:36:07;9.20;99.90
31597;DHT22;18201;50.978;7.034;2023-04-03T10:36:42;9.40;99.90
31597;DHT22;18201;50.978;7.034;2023-04-03T10:37:17;9.50;99.90
31597;DHT22;18201;50.978;7.034;2023-04-03T10:37:57;9.70;99.90
31597;DHT22;18201;50.978;7.034;2023-04-03T10:38:33;10.00;99.90
31597;DHT22;18201;50.978;7.034;2023-04-03T10:39:10;10.30;99.90
31597;DHT22;18201;50.978;7.034;2023-04-03T10:39:45;10.50;99.90
31597;DHT22;18201;50.978;7.034;2023-04-03T10:40:23;10.80;99.90
31597;DHT22;18201;50.978;7.034;2023-04-03T10:40:55;11.10;99.90
31597;DHT22;18201;50.978;7.034;2023-04-03T10:41:31;11.20;99.90
31597;DHT22;18201;50.978;7.034;2023-04-03T10:42:05;11.50;99.90
31597;DHT22;18201;50.978;7.034;2023-04-03T10:42:41;11.90;99.90
31597;DHT22;18201;50.978;7.034;2023-04-03T10:43:16;12.40;99.90
31597;DHT22;18201;50.978;7.034;2023-04-03T10:43:50;12.80;99.90
31597;DHT22;18201;50.978;7.034;2023-04-03T10:44:29;13.20;99.90
31597;DHT22;18201;50.978;7.034;2023-04-03T10:45:06;13.70;99.90
31597;DHT22;18201;50.978;7.034;2023-04-03T10:45:45;14.40;99.90
31597;DHT22;18201;50.978;7.034;2023-04-03T10:46:20;15.00;99.90
31597;DHT22;18201;50.978;7.034;2023-04-03T10:46:55;15.20;99.90
31597;DHT22;18201;50.978;7.034;2023-04-03T10:47:32;15.10;99.90
31597;DHT22;18201;50.978;7.034;2023-04-03T10:48:06;15.70;99.90
31597;DHT22;18201;50.978;7.034;2023-04-03T10:48:44;16.40;99.90
31597;DHT22;18201;50.978;7.034;2023-04-03T10:49:20;16.60;99.90
31597;DHT22;18201;50.978;7.034;2023-04-03T10:50:00;17.40;99.90
31597;DHT22;18201;50.978;7.034;2023-04-03T10:50:36;17.70;99.90
31597;DHT22;18201;50.978;7.034;2023-04-03T10:51:12;17.70;99.90
31597;DHT22;18201;50.978;7.034;2023-04-03T10:51:46;18.10;99.90
31597;DHT22;18201;50.978;7.034;2023-04-03T10:52:20;18.20;99.90
31597;DHT22;18201;50.978;7.034;2023-04-03T10:52:54;18.50;99.90
31597;DHT22;18201;50.978;7.034;2023-04-03T10:53:29;19.10;99.90
31597;DHT22;18201;50.978;7.034;2023-04-03T10:54:04;19.60;99.90
31597;DHT22;18201;50.978;7.034;2023-04-03T10:54:37;20.20;99.90
31597;DHT22;18201;50.978;7.034;2023-04-03T10:55:27;20.60;99.90
31597;DHT22;18201;50.978;7.034;2023-04-03T10:56:01;20.70;99.90
31597;DHT22;18201;50.978;7.034;2023-04-03T10:56:35;20.80;99.90
31597;DHT22;18201;50.978;7.034;2023-04-03T10:57:08;21.00;99.90
31597;DHT22;18201;50.978;7.034;2023-04-03T10:57:39;21.10;99.90
31597;DHT22;18201;50.978;7.034;2023-04-03T10:58:14;21.40;99.90
31597;DHT22;18201;50.978;7.034;2023-04-03T10:58:49;21.40;99.90
31597;DHT22;18201;50.978;7.034;2023-04-03T10:59:25;21.30;99.90
31597;DHT22;18201;50.978;7.034;2023-04-03T10:59:59;21.30;99.90
31597;DHT22;18201;50.978;7.034;2023-04-03T11:00:35;21.10;99.90
31597;DHT22;18201;50.978;7.034;2023-04-03T11:01:08;21.40;99.90
31597;DHT22;18201;50.978;7.034;2023-04-03T11:01:40;21.60;99.90
31597;DHT22;18201;50.978;7.034;2023-04-03T11:02:14;21.60;99.90
31597;DHT22;18201;50.978;7.034;2023-04-03T11:02:48;22.20;99.90
31597;DHT22;18201;50.978;7.034;2023-04-03T11:03:24;22.50;99.90
31597;DHT22;18201;50.978;7.034;2023-04-03T11:03:58;22.30;99.90
31597;DHT22;18201;50.978;7.034;2023-04-03T11:04:31;21.90;99.90
31597;DHT22;18201;50.978;7.034;2023-04-03T11:05:06;21.90;99.90
31597;DHT22;18201;50.978;7.034;2023-04-03T11:05:41;22.20;99.90
31597;DHT22;18201;50.978;7.034;2023-04-03T11:06:15;21.90;99.90
31597;DHT22;18201;50.978;7.034;2023-04-03T11:06:47;21.80;99.90
31597;DHT22;18201;50.978;7.034;2023-04-03T11:07:20;22.10;99.90
31597;DHT22;18201;50.978;7.034;2023-04-03T11:07:52;21.80;99.90
31597;DHT22;18201;50.978;7.034;2023-04-03T11:08:26;21.50;99.90
31597;DHT22;18201;50.978;7.034;2023-04-03T11:08:59;21.00;99.90
31597;DHT22;18201;50.978;7.034;2023-04-03T11:09:34;21.40;99.90
31597;DHT22;18201;50.978;7.034;2023-04-03T11:10:10;21.90;99.90
31597;DHT22;18201;50.978;7.034;2023-04-03T11:10:44;22.50;99.90
31597;DHT22;18201;50.978;7.034;2023-04-03T11:11:16;22.90;99.90
31597;DHT22;18201;50.978;7.034;2023-04-03T11:11:48;22.80;99.90
31597;DHT22;18201;50.978;7.034;2023-04-03T11:12:21;23.00;99.90
31597;DHT22;18201;50.978;7.034;2023-04-03T11:12:58;22.70;99.90
31597;DHT22;18201;50.978;7.034;2023-04-03T11:13:33;22.30;99.90
31597;DHT22;18201;50.978;7.034;2023-04-03T11:14:05;23.00;99.90
31597;DHT22;18201;50.978;7.034;2023-04-03T11:14:40;23.20;99.90
31597;DHT22;18201;50.978;7.034;2023-04-03T11:15:15;23.60;99.90
31597;DHT22;18201;50.978;7.034;2023-04-03T11:15:47;22.90;99.90
31597;DHT22;18201;50.978;7.034;2023-04-03T11:16:19;22.20;64.60
31597;DHT22;18201;50.978;7.034;2023-04-03T11:16:54;22.30;56.00
31597;DHT22;18201;50.978;7.034;2023-04-03T11:17:28;22.50;57.10
31597;DHT22;18201;50.978;7.034;2023-04-03T11:18:03;23.10;41.10
31597;DHT22;18201;50.978;7.034;2023-04-03T11:18:37;23.00;41.20
31597;DHT22;18201;50.978;7.034;2023-04-03T11:19:11;22.70;34.50
31597;DHT22;18201;50.978;7.034;2023-04-03T11:19:47;23.00;25.50
31597;DHT22;18201;50.978;7.034;2023-04-03T11:20:20;23.20;28.80
31597;DHT22;18201;50.978;7.034;2023-04-03T11:20:53;22.90;39.70
31597;DHT22;18201;50.978;7.034;2023-04-03T11:21:29;22.90;49.20
31597;DHT22;18201;50.978;7.034;2023-04-03T11:22:03;23.50;21.90
31597;DHT22;18201;50.978;7.034;2023-04-03T11:22:36;23.50;27.90
31597;DHT22;18201;50.978;7.034;2023-04-03T11:23:12;23.80;24.80
31597;DHT22;18201;50.978;7.034;2023-04-03T11:23:46;23.60;18.20
31597;DHT22;18201;50.978;7.034;2023-04-03T11:24:22;23.60;20.70
31597;DHT22;18201;50.978;7.034;2023-04-03T11:24:59;23.80;12.80
31597;DHT22;18201;50.978;7.034;2023-04-03T11:25:33;23.60;1.00
31597;DHT22;18201;50.978;7.034;2023-04-03T11:26:09;23.20;1.00
31597;DHT22;18201;50.978;7.034;2023-04-03T11:26:40;23.50;1.00
31597;DHT22;18201;50.978;7.034;2023-04-03T11:27:15;23.70;1.00
31597;DHT22;18201;50.978;7.034;2023-04-03T11:27:49;24.30;15.50
31597;DHT22;18201;50.978;7.034;2023-04-03T11:28:22;24.20;1.00
31597;DHT22;18201;50.978;7.034;2023-04-03T11:28:53;24.20;1.00
31597;DHT22;18201;50.978;7.034;2023-04-03T11:29:24;24.20;1.00
31597;DHT22;18201;50.978;7.034;2023-04-03T11:29:58;24.00;1.00
31597;DHT22;18201;50.978;7.034;2023-04-03T11:30:32;23.90;1.00
31597;DHT22;18201;50.978;7.034;2023-04-03T11:31:08;23.90;1.00
31597;DHT22;18201;50.978;7.034;2023-04-03T11:31:45;23.80;1.00
31597;DHT22;18201;50.978;7.034;2023-04-03T11:32:26;23.60;1.00
31597;DHT22;18201;50.978;7.034;2023-04-03T11:33:58;23.70;1.00
31597;DHT22;18201;50.978;7.034;2023-04-03T11:34:33;24.00;1.00
31597;DHT22;18201;50.978;7.034;2023-04-03T11:35:08;24.20;1.00
31597;DHT22;18201;50.978;7.034;2023-04-03T11:35:42;24.10;1.00
31597;DHT22;18201;50.978;7.034;2023-04-03T11:36:18;24.10;1.00
31597;DHT22;18201;50.978;7.034;2023-04-03T11:36:50;23.90;1.00
31597;DHT22;18201;50.978;7.034;2023-04-03T11:37:25;23.40;1.00
31597;DHT22;18201;50.978;7.034;2023-04-03T11:37:57;23.40;1.00
31597;DHT22;18201;50.978;7.034;2023-04-03T11:38:33;23.90;1.00
31597;DHT22;18201;50.978;7.034;2023-04-03T11:39:07;23.70;1.00
31597;DHT22;18201;50.978;7.034;2023-04-03T11:39:45;24.00;1.00
31597;DHT22;18201;50.978;7.034;2023-04-03T11:40:20;23.70;1.00
31597;DHT22;18201;50.978;7.034;2023-04-03T11:40:52;23.50;38.20
31597;DHT22;18201;50.978;7.034;2023-04-03T11:41:25;23.30;1.00
31597;DHT22;18201;50.978;7.034;2023-04-03T11:42:13;24.00;36.90
31597;DHT22;18201;50.978;7.034;2023-04-03T11:42:45;24.60;1.00
31597;DHT22;18201;50.978;7.034;2023-04-03T11:43:20;25.00;1.00
31597;DHT22;18201;50.978;7.034;2023-04-03T11:43:57;24.90;1.00
31597;DHT22;18201;50.978;7.034;2023-04-03T11:44:29;25.20;1.00
31597;DHT22;18201;50.978;7.034;2023-04-03T11:45:58;25.10;1.00
31597;DHT22;18201;50.978;7.034;2023-04-03T11:47:45;24.70;1.00
31597;DHT22;18201;50.978;7.034;2023-04-03T11:49:08;24.60;1.00
31597;DHT22;18201;50.978;7.034;2023-04-03T11:50:00;25.20;1.00
31597;DHT22;18201;50.978;7.034;2023-04-03T11:50:39;25.20;1.00
31597;DHT22;18201;50.978;7.034;2023-04-03T11:52:01;24.00;1.00
31597;DHT22;18201;50.978;7.034;2023-04-03T11:53:29;24.10;1.00
31597;DHT22;18201;50.978;7.034;2023-04-03T11:54:50;24.90;1.00
31597;DHT22;18201;50.978;7.034;2023-04-03T11:56:29;26.20;1.00
31597;DHT22;18201;50.978;7.034;2023-04-03T11:58:02;25.90;1.00
31597;DHT22;18201;50.978;7.034;2023-04-03T11:58:34;25.90;1.00
31597;DHT22;18201;50.978;7.034;2023-04-03T11:59:15;25.10;1.00
31597;DHT22;18201;50.978;7.034;2023-04-03T11:59:48;24.90;1.00
31597;DHT22;18201;50.978;7.034;2023-04-03T12:01:10;25.10;1.00
31597;DHT22;18201;50.978;7.034;2023-04-03T12:01:43;25.70;1.00
31597;DHT22;18201;50.978;7.034;2023-04-03T12:02:59;25.80;1.00
31597;DHT22;18201;50.978;7.034;2023-04-03T12:04:23;25.90;1.00
31597;DHT22;18201;50.978;7.034;2023-04-03T12:05:45;25.70;1.00
31597;DHT22;18201;50.978;7.034;2023-04-03T12:07:00;26.60;1.00
31597;DHT22;18201;50.978;7.034;2023-04-03T12:07:31;26.30;1.00
31597;DHT22;18201;50.978;7.034;2023-04-03T12:08:16;26.10;1.00
31597;DHT22;18201;50.978;7.034;2023-04-03T12:08:55;26.30;1.00
31597;DHT22;18201;50.978;7.034;2023-04-03T12:09:28;26.40;1.00
31597;DHT22;18201;50.978;7.034;2023-04-03T12:09:58;26.00;1.00
31597;DHT22;18201;50.978;7.034;2023-04-03T12:10:31;25.40;1.00
31597;DHT22;18201;50.978;7.034;2023-04-03T12:11:14;25.40;1.00
31597;DHT22;18201;50.978;7.034;2023-04-03T12:11:47;25.50;1.00
31597;DHT22;18201;50.978;7.034;2023-04-03T12:12:37;25.30;1.00
31597;DHT22;18201;50.978;7.034;2023-04-03T12:13:13;24.90;1.00
31597;DHT22;18201;50.978;7.034;2023-04-03T12:14:01;24.90;1.00
31597;DHT22;18201;50.978;7.034;2023-04-03T12:14:33;25.30;1.00
31597;DHT22;18201;50.978;7.034;2023-04-03T12:15:53;25.90;1.00
31597;DHT22;18201;50.978;7.034;2023-04-03T12:16:26;25.50;1.00
31597;DHT22;18201;50.978;7.034;2023-04-03T12:16:58;25.10;1.00
31597;DHT22;18201;50.978;7.034;2023-04-03T12:17:30;25.00;1.00
31597;DHT22;18201;50.978;7.034;2023-04-03T12:18:58;24.60;1.00
31597;DHT22;18201;50.978;7.034;2023-04-03T12:19:33;24.50;99.90
31597;DHT22;18201;50.978;7.034;2023-04-03T12:20:56;24.30;99.90
31597;DHT22;18201;50.978;7.034;2023-04-03T12:22:18;24.40;99.90
31597;DHT22;18201;50.978;7.034;2023-04-03T12:23:55;24.10;99.90
31597;DHT22;18201;50.978;7.034;2023-04-03T12:24:27;23.50;99.90
31597;DHT22;18201;50.978;7.034;2023-04-03T12:25:00;23.30;99.90
31597;DHT22;18201;50.978;7.034;2023-04-03T12:25:51;23.30;99.90